»·PEaware :: UAL465 KLAX-KLAS

UAL465 :: KLAX-KLAS

FLIGHT INFORMATION

Flight Status: Arrived
Operator:
United Airlines
More flights by this operator :: More flights under this callsign
Pilot: Matt G. (13672)
Aircraft: BOEING 727-100
(B721)
More flights by this aircraft type
Origin: KLAX Los Angeles Intl
United States
Destination: KLAS McCarran Intl
United States
More flights between these airports :: More routes between these airports
Route: +ORCKA3 MISEN KEPEC6
File this flight plan on PilotEdge
Remarks: Will request ILS Approach
Altitude:
(Current/Filed)
25,000ft
Speed:
(Current/Filed)
493kts
Departed: 09-Aug-18 04:52 PM
Arrived: 09-Aug-18 05:45 PM
Distance/Time
Traveled:
206nm/0:53
Distance/Time
To Go:
Arrived

Flight Plot

Page will automatically refresh every two minutes.

Flight plan parsing failed; only flown route is shown


Map Options




Map Legend


Flown Route
Filed Route
Departure Airport
Arrival Airport
Navaid (VOR, NDB)
Fix

Horizontal Profiles

Position Reports

Time Latitude Longitude Heading Altitude Ground
Speed
09-Aug-18 16:04 33.940865 -118.402600 96 114ft 0kts
09-Aug-18 16:05 33.940865 -118.402600 96 114ft 0kts
09-Aug-18 16:06 33.940865 -118.402600 96 114ft 0kts
09-Aug-18 16:07 33.940865 -118.402600 96 114ft 0kts
09-Aug-18 16:08 33.940865 -118.402600 96 114ft 0kts
09-Aug-18 16:09 33.940865 -118.402600 96 114ft 0kts
09-Aug-18 16:10 33.940865 -118.402600 96 114ft 0kts
09-Aug-18 16:11 33.940865 -118.402599 96 114ft 0kts
09-Aug-18 16:12 33.940865 -118.402599 96 114ft 0kts
09-Aug-18 16:13 33.940865 -118.402599 96 114ft 0kts
09-Aug-18 16:14 33.940865 -118.402599 96 114ft 0kts
09-Aug-18 16:15 33.940865 -118.402599 96 114ft 0kts
09-Aug-18 16:16 33.940865 -118.402599 96 114ft 0kts
09-Aug-18 16:17 33.940865 -118.402599 96 114ft 0kts
09-Aug-18 16:18 33.940865 -118.402599 96 114ft 0kts
09-Aug-18 16:19 33.940865 -118.402599 96 114ft 0kts
09-Aug-18 16:20 33.940865 -118.402599 96 114ft 0kts
09-Aug-18 16:21 33.940865 -118.402599 96 114ft 0kts
09-Aug-18 16:22 33.940865 -118.402599 96 114ft 0kts
09-Aug-18 16:23 33.940865 -118.402599 96 114ft 0kts
09-Aug-18 16:24 33.940865 -118.402599 96 114ft 0kts
09-Aug-18 16:28 33.940865 -118.402599 96 114ft 0kts
09-Aug-18 16:29 33.940865 -118.402599 96 114ft 0kts
09-Aug-18 16:30 33.940865 -118.402599 96 114ft 0kts
09-Aug-18 16:31 33.940865 -118.402599 96 114ft 0kts
09-Aug-18 16:32 33.940865 -118.402599 96 114ft 0kts
09-Aug-18 16:33 33.940865 -118.402599 96 114ft 0kts
09-Aug-18 16:34 33.940865 -118.402599 96 114ft 0kts
09-Aug-18 16:35 33.940865 -118.402599 96 114ft 0kts
09-Aug-18 16:36 33.940865 -118.402599 96 114ft 0kts
09-Aug-18 16:37 33.940865 -118.402599 96 114ft 0kts
09-Aug-18 16:38 33.940875 -118.402720 96 114ft 2kts
09-Aug-18 16:39 33.941253 -118.403225 166 114ft 2kts
09-Aug-18 16:40 33.941590 -118.403274 173 114ft 0kts
09-Aug-18 16:41 33.941590 -118.403274 173 114ft 0kts
09-Aug-18 16:42 33.941307 -118.403235 173 114ft 6kts
09-Aug-18 16:43 33.939441 -118.401478 83 114ft 14kts
09-Aug-18 16:44 33.939989 -118.396167 84 114ft 17kts
09-Aug-18 16:45 33.939529 -118.392528 83 114ft 17kts
09-Aug-18 16:46 33.939942 -118.388784 85 114ft 18kts
09-Aug-18 16:47 33.940573 -118.382423 82 114ft 20kts
09-Aug-18 16:48 33.940746 -118.380320 103 114ft 0kts
09-Aug-18 16:49 33.940746 -118.380320 103 114ft 0kts
09-Aug-18 16:50 33.940746 -118.380320 103 114ft 0kts
09-Aug-18 16:51 33.940746 -118.380320 103 114ft 0kts
09-Aug-18 16:52 33.939702 -118.381557 263 114ft 35kts
09-Aug-18 16:53 33.935002 -118.428628 263 1457ft 206kts
09-Aug-18 16:54 33.915347 -118.507617 246 5353ft 264kts
09-Aug-18 16:55 33.871853 -118.576479 188 9404ft 280kts
09-Aug-18 16:56 33.815165 -118.527059 99 11081ft 325kts
09-Aug-18 16:57 33.857077 -118.436475 43 13973ft 338kts
09-Aug-18 16:58 33.920630 -118.365860 44 16319ft 348kts
09-Aug-18 16:59 33.970528 -118.265301 67 18455ft 362kts
09-Aug-18 17:00 34.003694 -118.149951 71 20324ft 375kts
09-Aug-18 17:01 34.035313 -118.028413 71 21999ft 387kts
09-Aug-18 17:02 34.067321 -117.903290 71 23485ft 398kts
09-Aug-18 17:03 34.100193 -117.774486 68 24813ft 407kts
09-Aug-18 17:04 34.174459 -117.669731 45 24998ft 437kts
09-Aug-18 17:05 34.259294 -117.557301 46 25007ft 471kts
09-Aug-18 17:06 34.347256 -117.438811 46 25041ft 477kts
09-Aug-18 17:07 34.433955 -117.321534 47 25071ft 476kts
09-Aug-18 17:08 34.520323 -117.204308 47 25057ft 463kts
09-Aug-18 17:09 34.604598 -117.089543 47 25072ft 451kts
09-Aug-18 17:10 34.686976 -116.976999 47 25025ft 443kts
09-Aug-18 17:11 34.767958 -116.866003 47 24980ft 436kts
09-Aug-18 17:12 34.847543 -116.756567 47 24979ft 429kts
09-Aug-18 17:13 34.925634 -116.648900 47 24665ft 424kts
09-Aug-18 17:14 35.003028 -116.541932 48 23979ft 416kts
09-Aug-18 17:15 35.079901 -116.435087 49 24003ft 425kts
09-Aug-18 17:16 35.159728 -116.332101 46 23983ft 432kts
09-Aug-18 17:17 35.243367 -116.227206 46 21815ft 431kts
09-Aug-18 17:18 35.318776 -116.132372 46 19783ft 328kts
09-Aug-18 17:19 35.376238 -116.059916 46 17017ft 283kts
09-Aug-18 17:20 35.420529 -116.003957 46 14498ft 269kts
09-Aug-18 17:21 35.477988 -115.931209 46 13100ft 256kts
09-Aug-18 17:22 35.534146 -115.859968 46 13091ft 323kts
09-Aug-18 17:23 35.587410 -115.792265 46 13076ft 332kts
09-Aug-18 17:24 35.659891 -115.699913 46 13069ft 313kts
09-Aug-18 17:25 35.719090 -115.624304 46 13069ft 300kts
09-Aug-18 17:26 35.775002 -115.579530 8 13095ft 299kts
09-Aug-18 17:27 35.872777 -115.569704 3 13067ft 308kts
09-Aug-18 17:28 35.943330 -115.563621 17 13032ft 311kts
09-Aug-18 17:29 35.994646 -115.481288 65 12199ft 316kts
09-Aug-18 17:30 36.027103 -115.379271 84 11110ft 326kts
09-Aug-18 17:31 36.023158 -115.274722 93 10900ft 271kts
09-Aug-18 17:32 36.017541 -115.189648 94 8759ft 246kts
09-Aug-18 17:33 36.011906 -115.105561 93 8049ft 244kts
09-Aug-18 17:34 36.006697 -115.021064 92 7399ft 252kts
09-Aug-18 17:35 36.001739 -114.934104 97 6400ft 252kts
09-Aug-18 17:36 35.996478 -114.849188 97 5413ft 245kts
09-Aug-18 17:37 36.001392 -114.771358 43 5081ft 213kts
09-Aug-18 17:38 36.040061 -114.791582 290 5123ft 169kts
09-Aug-18 17:39 36.060111 -114.844772 290 5015ft 165kts
09-Aug-18 17:40 36.071592 -114.894368 269 5198ft 141kts
09-Aug-18 17:41 36.074062 -114.948373 270 5067ft 161kts
09-Aug-18 17:42 36.074561 -115.001784 265 4092ft 147kts
09-Aug-18 17:43 36.073547 -115.050275 266 3326ft 138kts
09-Aug-18 17:44 36.073611 -115.099554 268 2603ft 147kts
09-Aug-18 17:45 36.073627 -115.140777 269 2123ft 99kts
09-Aug-18 17:46 36.073689 -115.150407 268 2123ft 9kts
09-Aug-18 17:47 36.075937 -115.156842 319 2123ft 23kts
09-Aug-18 17:48 36.078046 -115.154948 87 2123ft 25kts
09-Aug-18 17:49 36.078329 -115.147488 71 2123ft 21kts
09-Aug-18 17:50 36.078932 -115.142204 9 2123ft 15kts
09-Aug-18 17:51 36.082176 -115.140047 45 2123ft 4kts
09-Aug-18 17:52 36.082180 -115.140042 45 2123ft 0kts

Navigation Log

Ident Type
Flight plan parsing failed, navigation log unavailable